Time;durP1;ratioP1;P1;durP2;ratioP2;P2;SDS_P1;SDS_P2;PMS_P1;PMS_P2;Temp;Humidity;BMP_temperature;BMP_pressure;BME280_temperature;BME280_humidity;BME280_pressure;Samples;Min_cycle;Max_cycle;Signal;HPM_P1;HPM_P2
2023/03/20 00:00:29;;;;;;;14.30;4.00;;;;;;;;;;5063409;28;20052;-68
2023/03/20 00:02:56;;;;;;;11.93;4.35;;;;;;;;;;5083322;28;20040;-68
2023/03/20 00:05:27;;;;;;;12.93;4.32;;;;;;;;;;5080177;28;20051;-68
2023/03/20 00:07:54;;;;;;;8.60;4.22;;;;;;;;;;5078699;28;20425;-68
2023/03/20 00:10:22;;;;;;;12.85;4.53;;;;;;;;;;5081790;28;20053;-68
2023/03/20 00:12:50;;;;;;;11.98;5.05;;;;;;;;;;5081507;28;20587;-68
2023/03/20 00:15:24;;;;;;;13.25;4.30;;;;;;;;;;5077439;28;20041;-68
2023/03/20 00:17:52;;;;;;;12.48;4.22;;;;;;;;;;5080716;28;20123;-68
2023/03/20 00:20:19;;;;;;;10.57;4.75;;;;;;;;;;5079710;28;20047;-68
2023/03/20 00:22:48;;;;;;;12.45;4.32;;;;;;;;;;5065403;28;20455;-68
2023/03/20 00:25:16;;;;;;;19.67;4.88;;;;;;;;;;5084629;28;20419;-68
2023/03/20 00:27:44;;;;;;;15.98;4.47;;;;;;;;;;5083738;28;20044;-68
2023/03/20 00:30:19;;;;;;;16.67;4.80;;;;;;;;;;5082601;28;20047;-68
2023/03/20 00:32:46;;;;;;;13.07;4.45;;;;;;;;;;5080199;28;20142;-68
2023/03/20 00:35:21;;;;;;;13.23;4.60;;;;;;;;;;5084594;28;20052;-68
2023/03/20 00:37:50;;;;;;;17.17;4.38;;;;;;;;;;5086962;28;20039;-68
2023/03/20 00:40:17;;;;;;;12.77;5.05;;;;;;;;;;5081305;28;20055;-68
2023/03/20 00:42:45;;;;;;;16.67;4.78;;;;;;;;;;5082540;28;20432;-68
2023/03/20 00:45:14;;;;;;;16.90;4.75;;;;;;;;;;5088594;28;20653;-68
2023/03/20 00:47:42;;;;;;;22.08;5.85;;;;;;;;;;5084400;28;20125;-68
2023/03/20 00:50:15;;;;;;;13.93;5.00;;;;;;;;;;5086502;28;20048;-68
2023/03/20 00:52:43;;;;;;;20.88;5.10;;;;;;;;;;5081953;28;20048;-68
2023/03/20 00:55:12;;;;;;;17.02;5.60;;;;;;;;;;5082561;28;20056;-67
2023/03/20 00:57:41;;;;;;;22.30;4.85;;;;;;;;;;5083495;28;20402;-68
2023/03/20 01:00:09;;;;;;;15.00;5.07;;;;;;;;;;5082387;28;20514;-68
2023/03/20 01:02:36;;;;;;;15.43;4.88;;;;;;;;;;5082713;28;20394;-68
2023/03/20 01:05:04;;;;;;;18.02;5.00;;;;;;;;;;5080159;28;20050;-68
2023/03/20 01:07:32;;;;;;;14.30;4.90;;;;;;;;;;5082388;28;20044;-68
2023/03/20 01:10:00;;;;;;;23.02;5.32;;;;;;;;;;5081309;28;20090;-68
2023/03/20 01:12:28;;;;;;;18.48;5.70;;;;;;;;;;5084469;28;20048;-68
2023/03/20 01:14:57;;;;;;;19.08;5.10;;;;;;;;;;5079980;28;20051;-67
2023/03/20 01:17:25;;;;;;;17.27;5.20;;;;;;;;;;5059821;28;20104;-67
2023/03/20 01:19:52;;;;;;;18.95;5.47;;;;;;;;;;5085612;28;20058;-67
2023/03/20 01:22:19;;;;;;;25.10;6.65;;;;;;;;;;5081428;28;20406;-67
2023/03/20 01:24:47;;;;;;;19.10;5.90;;;;;;;;;;5080596;28;20067;-67
2023/03/20 01:27:15;;;;;;;21.65;5.53;;;;;;;;;;5084780;28;20127;-68
2023/03/20 01:29:43;;;;;;;20.98;5.22;;;;;;;;;;5084263;28;20066;-68
2023/03/20 01:32:12;;;;;;;28.80;7.15;;;;;;;;;;5082420;28;20117;-67
2023/03/20 01:34:39;;;;;;;23.17;5.82;;;;;;;;;;5076859;28;20055;-67
2023/03/20 01:37:10;;;;;;;24.25;6.25;;;;;;;;;;5065494;28;20059;-67
2023/03/20 01:39:38;;;;;;;25.48;6.40;;;;;;;;;;5085146;28;20044;-68
2023/03/20 01:42:06;;;;;;;24.83;6.05;;;;;;;;;;5084642;28;20505;-67
2023/03/20 01:44:35;;;;;;;21.10;6.43;;;;;;;;;;5080523;28;20059;-67
2023/03/20 01:47:04;;;;;;;21.35;6.45;;;;;;;;;;5078478;28;20052;-67
2023/03/20 01:49:50;;;;;;;20.40;6.05;;;;;;;;;;5085015;28;20123;-67
2023/03/20 01:52:17;;;;;;;16.95;6.25;;;;;;;;;;5083954;28;20051;-67
2023/03/20 01:54:45;;;;;;;21.17;6.47;;;;;;;;;;5087807;28;20326;-68
2023/03/20 01:57:15;;;;;;;23.70;6.85;;;;;;;;;;5083259;28;20036;-67
2023/03/20 01:59:44;;;;;;;19.42;6.63;;;;;;;;;;5082382;28;20049;-67
2023/03/20 02:02:14;;;;;;;23.77;7.00;;;;;;;;;;5087798;28;20056;-67
2023/03/20 02:04:43;;;;;;;18.80;7.13;;;;;;;;;;5085962;28;20051;-68
2023/03/20 02:07:11;;;;;;;20.80;6.43;;;;;;;;;;5085750;28;20040;-67
2023/03/20 02:09:38;;;;;;;17.38;5.97;;;;;;;;;;5085400;28;20048;-68
2023/03/20 02:12:06;;;;;;;26.35;6.70;;;;;;;;;;5081730;28;20052;-67
2023/03/20 02:14:34;;;;;;;20.40;6.90;;;;;;;;;;5072336;28;20052;-67
2023/03/20 02:17:01;;;;;;;23.42;7.10;;;;;;;;;;5087620;28;20040;-67
2023/03/20 02:19:32;;;;;;;20.23;7.22;;;;;;;;;;5082934;28;20565;-67
2023/03/20 02:22:18;;;;;;;25.20;7.28;;;;;;;;;;5080256;28;20058;-68
2023/03/20 02:25:02;;;;;;;29.15;7.75;;;;;;;;;;5069606;28;20144;-67
2023/03/20 02:27:33;;;;;;;24.73;8.05;;;;;;;;;;5083903;28;20070;-67
2023/03/20 02:30:19;;;;;;;23.50;7.88;;;;;;;;;;5087525;28;20044;-68
2023/03/20 02:33:01;;;;;;;28.65;9.05;;;;;;;;;;5089030;28;20457;-67
2023/03/20 02:35:47;;;;;;;19.77;8.50;;;;;;;;;;5089499;28;20052;-68
2023/03/20 02:38:21;;;;;;;25.35;8.40;;;;;;;;;;5083704;28;20052;-67
2023/03/20 02:40:51;;;;;;;21.67;8.07;;;;;;;;;;5088150;28;20055;-68
2023/03/20 02:43:20;;;;;;;26.73;9.40;;;;;;;;;;5082677;28;20047;-67
2023/03/20 02:45:50;;;;;;;16.25;8.30;;;;;;;;;;5090399;28;20058;-67
2023/03/20 02:48:22;;;;;;;20.35;8.40;;;;;;;;;;5085467;28;20056;-67
2023/03/20 02:50:51;;;;;;;19.58;8.35;;;;;;;;;;5088058;28;20514;-67
2023/03/20 02:53:28;;;;;;;21.38;8.40;;;;;;;;;;5085961;28;20482;-67
2023/03/20 02:55:57;;;;;;;19.73;7.78;;;;;;;;;;5071054;28;20052;-67
2023/03/20 02:58:27;;;;;;;20.38;7.30;;;;;;;;;;5075318;28;20048;-67
2023/03/20 03:00:58;;;;;;;17.95;7.28;;;;;;;;;;5083931;28;20048;-67
2023/03/20 03:03:28;;;;;;;18.13;7.75;;;;;;;;;;5079201;28;20441;-68
2023/03/20 03:05:58;;;;;;;15.35;7.07;;;;;;;;;;5085803;28;20079;-67
2023/03/20 03:08:30;;;;;;;18.35;6.70;;;;;;;;;;5076812;28;20044;-68
2023/03/20 03:11:00;;;;;;;16.05;6.43;;;;;;;;;;5078252;28;20048;-67
2023/03/20 03:13:28;;;;;;;17.02;6.32;;;;;;;;;;5082112;28;20048;-67
2023/03/20 03:16:01;;;;;;;15.90;7.10;;;;;;;;;;5084879;28;20052;-67
2023/03/20 03:18:31;;;;;;;13.80;6.18;;;;;;;;;;5083457;28;20045;-68
2023/03/20 03:21:00;;;;;;;14.05;6.20;;;;;;;;;;5080692;28;20077;-67
2023/03/20 03:23:29;;;;;;;17.85;5.70;;;;;;;;;;5083249;28;20473;-67
2023/03/20 03:25:57;;;;;;;16.20;6.22;;;;;;;;;;5075439;28;20079;-67
2023/03/20 03:28:29;;;;;;;18.67;5.78;;;;;;;;;;5081895;28;20037;-67
2023/03/20 03:30:56;;;;;;;15.05;5.65;;;;;;;;;;5086538;28;20047;-67
2023/03/20 03:33:25;;;;;;;11.43;5.15;;;;;;;;;;5062579;28;20521;-67
2023/03/20 03:35:55;;;;;;;11.27;5.03;;;;;;;;;;5087902;28;20075;-67
2023/03/20 03:38:27;;;;;;;14.93;5.32;;;;;;;;;;5080672;28;20047;-67
2023/03/20 03:41:01;;;;;;;14.25;5.63;;;;;;;;;;5086385;28;20395;-67
2023/03/20 03:43:31;;;;;;;19.10;6.30;;;;;;;;;;5083841;28;20048;-67
2023/03/20 03:46:01;;;;;;;11.85;5.20;;;;;;;;;;5078194;28;20487;-67
2023/03/20 03:48:31;;;;;;;16.35;6.45;;;;;;;;;;5082830;28;20394;-68
2023/03/20 03:51:00;;;;;;;18.15;5.90;;;;;;;;;;5061606;28;20052;-67
2023/03/20 03:53:31;;;;;;;13.88;6.65;;;;;;;;;;5086061;28;20509;-67
2023/03/20 03:56:01;;;;;;;16.40;6.72;;;;;;;;;;5080352;28;20574;-67
2023/03/20 03:58:29;;;;;;;18.65;6.55;;;;;;;;;;5084956;28;20563;-67
2023/03/20 04:00:58;;;;;;;21.65;6.85;;;;;;;;;;5080218;28;20545;-67
2023/03/20 04:03:29;;;;;;;19.73;6.93;;;;;;;;;;5087359;28;20414;-67
2023/03/20 04:05:58;;;;;;;21.98;7.72;;;;;;;;;;5078704;28;20143;-68
2023/03/20 04:08:25;;;;;;;19.58;7.97;;;;;;;;;;5088054;28;20058;-67
2023/03/20 04:10:52;;;;;;;22.50;8.23;;;;;;;;;;5084076;28;20051;-67
2023/03/20 04:13:21;;;;;;;17.38;8.23;;;;;;;;;;5082426;28;20562;-67
2023/03/20 04:15:48;;;;;;;22.08;8.90;;;;;;;;;;5087809;28;20082;-68
2023/03/20 04:18:16;;;;;;;16.27;9.60;;;;;;;;;;5087464;28;20483;-67
2023/03/20 04:20:43;;;;;;;22.83;9.93;;;;;;;;;;5081257;28;20043;-68
2023/03/20 04:23:11;;;;;;;24.00;10.90;;;;;;;;;;5086826;28;20052;-68
2023/03/20 04:25:38;;;;;;;24.73;10.18;;;;;;;;;;5086994;28;20044;-68
2023/03/20 04:28:06;;;;;;;23.08;11.80;;;;;;;;;;5085780;28;20044;-67
2023/03/20 04:30:34;;;;;;;21.13;11.00;;;;;;;;;;5087615;28;20783;-67
2023/03/20 04:33:02;;;;;;;24.27;11.35;;;;;;;;;;5085443;28;20541;-68
2023/03/20 04:35:29;;;;;;;33.03;12.50;;;;;;;;;;5084883;28;20059;-67
2023/03/20 04:37:56;;;;;;;24.45;12.90;;;;;;;;;;5087542;28;20127;-67
2023/03/20 04:40:23;;;;;;;25.65;11.93;;;;;;;;;;5085697;28;20076;-68
2023/03/20 04:42:51;;;;;;;25.05;12.05;;;;;;;;;;5081905;28;20050;-67
2023/03/20 04:45:19;;;;;;;26.45;12.02;;;;;;;;;;5067036;28;20464;-67
2023/03/20 04:47:47;;;;;;;27.02;12.50;;;;;;;;;;5087086;28;20051;-67
2023/03/20 04:50:15;;;;;;;34.60;12.63;;;;;;;;;;5084331;28;20556;-67
2023/03/20 04:52:42;;;;;;;27.10;13.15;;;;;;;;;;5084053;28;20051;-68
2023/03/20 04:55:10;;;;;;;24.05;11.65;;;;;;;;;;5084712;28;20048;-67
2023/03/20 04:57:37;;;;;;;29.52;12.50;;;;;;;;;;5067794;28;20140;-67
2023/03/20 05:00:05;;;;;;;26.38;12.60;;;;;;;;;;5088220;28;20051;-67
2023/03/20 05:02:32;;;;;;;29.30;12.45;;;;;;;;;;5078852;28;20129;-67
2023/03/20 05:05:01;;;;;;;45.72;22.10;;;;;;;;;;5083977;28;20044;-67
2023/03/20 05:07:28;;;;;;;28.33;12.45;;;;;;;;;;5084775;28;20048;-67
2023/03/20 05:09:55;;;;;;;25.45;11.80;;;;;;;;;;5086748;28;20408;-68
2023/03/20 05:12:23;;;;;;;30.88;12.35;;;;;;;;;;5082067;28;20041;-67
2023/03/20 05:14:51;;;;;;;28.42;12.65;;;;;;;;;;5085411;28;20056;-68
2023/03/20 05:17:18;;;;;;;23.38;12.20;;;;;;;;;;5084809;28;20056;-67
2023/03/20 05:19:46;;;;;;;26.35;12.38;;;;;;;;;;5084350;28;20063;-67
2023/03/20 05:22:15;;;;;;;27.58;12.05;;;;;;;;;;5081560;28;20115;-67
2023/03/20 05:24:42;;;;;;;24.95;11.85;;;;;;;;;;5087022;28;20459;-68
2023/03/20 05:27:09;;;;;;;29.85;12.73;;;;;;;;;;5083549;28;20044;-67
2023/03/20 05:29:36;;;;;;;20.45;11.93;;;;;;;;;;5084213;28;20047;-68
2023/03/20 05:32:04;;;;;;;24.23;11.88;;;;;;;;;;5084903;28;20055;-67
2023/03/20 05:34:31;;;;;;;27.02;12.30;;;;;;;;;;5082438;28;20126;-67
2023/03/20 05:36:58;;;;;;;25.52;12.00;;;;;;;;;;5087688;28;20048;-68
2023/03/20 05:39:27;;;;;;;24.65;11.82;;;;;;;;;;5085097;28;21204;-68
2023/03/20 05:41:54;;;;;;;27.60;12.30;;;;;;;;;;5081914;28;20518;-68
2023/03/20 05:44:22;;;;;;;24.42;11.68;;;;;;;;;;5087231;28;20063;-68
2023/03/20 05:46:49;;;;;;;32.90;11.82;;;;;;;;;;5088343;28;20047;-67
2023/03/20 05:49:17;;;;;;;26.23;11.23;;;;;;;;;;5089961;28;20042;-67
2023/03/20 05:51:44;;;;;;;22.77;11.43;;;;;;;;;;5082461;28;20369;-67
2023/03/20 05:54:11;;;;;;;26.70;11.75;;;;;;;;;;5084742;28;20381;-67
2023/03/20 05:56:40;;;;;;;22.40;11.23;;;;;;;;;;5050960;28;20064;-67
2023/03/20 05:59:07;;;;;;;24.25;11.45;;;;;;;;;;5043307;28;20133;-68
2023/03/20 06:01:34;;;;;;;24.73;11.70;;;;;;;;;;5048597;28;20057;-68
2023/03/20 06:04:02;;;;;;;24.15;11.00;;;;;;;;;;5046840;28;20053;-67
2023/03/20 06:06:29;;;;;;;30.13;12.43;;;;;;;;;;5049584;28;20053;-68
2023/03/20 06:08:56;;;;;;;33.03;12.10;;;;;;;;;;5053339;28;20040;-67
2023/03/20 06:11:23;;;;;;;24.85;11.85;;;;;;;;;;5052703;28;20052;-67
2023/03/20 06:13:53;;;;;;;34.67;14.30;;;;;;;;;;5055534;28;20052;-67
2023/03/20 06:16:20;;;;;;;26.58;12.32;;;;;;;;;;5049420;28;20133;-68
2023/03/20 06:18:48;;;;;;;29.95;13.15;;;;;;;;;;5055774;28;20134;-67
2023/03/20 06:21:15;;;;;;;30.02;13.65;;;;;;;;;;5056467;28;20076;-68
2023/03/20 06:23:42;;;;;;;30.00;13.70;;;;;;;;;;5054474;28;20056;-68
2023/03/20 06:26:10;;;;;;;32.13;13.90;;;;;;;;;;5053275;28;20044;-68
2023/03/20 06:28:38;;;;;;;30.38;13.98;;;;;;;;;;5051709;28;20120;-68
2023/03/20 06:31:08;;;;;;;31.33;14.05;;;;;;;;;;5053595;28;20052;-68
2023/03/20 06:33:36;;;;;;;30.15;14.38;;;;;;;;;;5055030;28;20049;-68
2023/03/20 06:36:04;;;;;;;30.95;13.68;;;;;;;;;;5042839;28;20491;-68
2023/03/20 06:38:31;;;;;;;28.60;13.70;;;;;;;;;;5052662;28;20710;-67
2023/03/20 06:40:59;;;;;;;33.35;14.50;;;;;;;;;;5048970;28;20052;-67
2023/03/20 06:43:26;;;;;;;32.25;14.55;;;;;;;;;;5038286;28;20449;-67
2023/03/20 06:45:54;;;;;;;32.70;14.02;;;;;;;;;;5054499;28;20048;-67
2023/03/20 06:48:23;;;;;;;29.48;13.40;;;;;;;;;;5050003;28;20051;-67
2023/03/20 06:50:50;;;;;;;30.52;14.52;;;;;;;;;;5056122;28;20056;-67
2023/03/20 06:53:17;;;;;;;31.20;13.65;;;;;;;;;;5047702;28;20084;-67
2023/03/20 06:55:47;;;;;;;28.48;13.13;;;;;;;;;;5061519;28;20499;-67
2023/03/20 06:58:15;;;;;;;29.20;13.85;;;;;;;;;;5083828;28;20065;-68
2023/03/20 07:00:43;;;;;;;27.48;13.85;;;;;;;;;;5086412;28;20048;-67
2023/03/20 07:03:10;;;;;;;26.80;12.93;;;;;;;;;;5077926;28;20085;-67
2023/03/20 07:05:39;;;;;;;26.23;14.05;;;;;;;;;;5082414;28;20051;-67
2023/03/20 07:08:07;;;;;;;29.77;14.20;;;;;;;;;;5087850;28;20079;-67
2023/03/20 07:10:34;;;;;;;35.95;13.18;;;;;;;;;;5087089;28;20052;-68
2023/03/20 07:13:01;;;;;;;26.42;13.23;;;;;;;;;;5083852;28;20044;-67
2023/03/20 07:15:29;;;;;;;27.63;12.60;;;;;;;;;;5083825;28;20439;-67
2023/03/20 07:17:56;;;;;;;26.92;11.85;;;;;;;;;;5069276;28;20048;-67
2023/03/20 07:20:24;;;;;;;31.30;13.88;;;;;;;;;;5087539;28;20534;-67
2023/03/20 07:22:54;;;;;;;24.80;11.85;;;;;;;;;;5086561;28;20126;-68
2023/03/20 07:25:21;;;;;;;28.08;12.98;;;;;;;;;;5083152;28;20040;-68
2023/03/20 07:27:49;;;;;;;27.63;13.15;;;;;;;;;;5079205;28;20487;-68
2023/03/20 07:30:17;;;;;;;29.35;12.60;;;;;;;;;;5067374;28;20048;-68
2023/03/20 07:32:45;;;;;;;28.52;12.50;;;;;;;;;;5087253;28;20048;-68
2023/03/20 07:35:12;;;;;;;23.20;12.13;;;;;;;;;;5086449;28;20136;-67
2023/03/20 07:37:39;;;;;;;26.45;12.25;;;;;;;;;;5085548;28;20055;-67
2023/03/20 07:40:09;;;;;;;30.65;12.48;;;;;;;;;;5089654;28;20055;-67
2023/03/20 07:42:36;;;;;;;27.92;12.80;;;;;;;;;;5084739;28;20040;-68
2023/03/20 07:45:04;;;;;;;29.17;12.85;;;;;;;;;;5082132;28;20044;-67
2023/03/20 07:47:31;;;;;;;30.90;12.25;;;;;;;;;;5088153;28;20484;-67
2023/03/20 07:49:58;;;;;;;22.92;11.77;;;;;;;;;;5077991;28;20040;-68
2023/03/20 07:52:27;;;;;;;28.25;12.30;;;;;;;;;;5086182;28;20135;-67
2023/03/20 07:54:54;;;;;;;27.98;11.90;;;;;;;;;;5086504;28;20079;-67
2023/03/20 07:57:23;;;;;;;26.48;12.30;;;;;;;;;;5086632;28;20118;-67
2023/03/20 07:59:51;;;;;;;25.92;11.90;;;;;;;;;;5078243;28;20271;-67
2023/03/20 08:02:18;;;;;;;25.10;11.68;;;;;;;;;;5081685;28;20043;-68
2023/03/20 08:04:46;;;;;;;21.30;10.43;;;;;;;;;;5086420;28;20514;-67
2023/03/20 08:07:13;;;;;;;23.67;10.77;;;;;;;;;;5085710;28;20286;-68
2023/03/20 08:09:40;;;;;;;19.98;9.98;;;;;;;;;;5086457;28;20047;-67
2023/03/20 08:12:08;;;;;;;24.17;10.40;;;;;;;;;;5069550;28;20052;-67
2023/03/20 08:14:38;;;;;;;28.60;10.98;;;;;;;;;;5085408;28;20064;-67
2023/03/20 08:17:05;;;;;;;23.85;9.95;;;;;;;;;;5087729;28;20055;-67
2023/03/20 08:19:33;;;;;;;22.58;9.95;;;;;;;;;;5085458;28;20063;-68
2023/03/20 08:22:00;;;;;;;23.25;10.52;;;;;;;;;;5082572;28;20081;-67
2023/03/20 08:24:27;;;;;;;21.60;9.95;;;;;;;;;;5085605;28;20063;-67
2023/03/20 08:26:55;;;;;;;24.02;9.90;;;;;;;;;;5084486;28;20044;-68
2023/03/20 08:29:22;;;;;;;23.92;9.73;;;;;;;;;;5072468;28;20044;-68
2023/03/20 08:31:51;;;;;;;24.17;9.80;;;;;;;;;;5085047;28;20070;-67
2023/03/20 08:34:18;;;;;;;19.58;9.50;;;;;;;;;;5079712;28;20522;-68
2023/03/20 08:36:45;;;;;;;23.15;10.00;;;;;;;;;;5086052;28;20062;-68
2023/03/20 08:39:12;;;;;;;24.65;9.40;;;;;;;;;;5086133;28;20054;-68
2023/03/20 08:41:42;;;;;;;25.67;10.20;;;;;;;;;;5086639;28;20060;-67
2023/03/20 08:44:09;;;;;;;23.90;9.93;;;;;;;;;;5083457;28;20047;-67
2023/03/20 08:46:36;;;;;;;25.55;9.52;;;;;;;;;;5086930;28;20050;-67
2023/03/20 08:49:06;;;;;;;22.55;9.77;;;;;;;;;;5061841;28;20055;-67
2023/03/20 08:51:33;;;;;;;18.40;9.38;;;;;;;;;;5085030;28;20044;-68
2023/03/20 08:54:00;;;;;;;22.83;8.65;;;;;;;;;;5079800;28;20048;-68
2023/03/20 08:56:27;;;;;;;21.80;9.65;;;;;;;;;;5078719;28;20397;-68
2023/03/20 08:58:55;;;;;;;23.75;8.65;;;;;;;;;;5081996;28;20101;-68
2023/03/20 09:01:22;;;;;;;25.88;8.73;;;;;;;;;;5087538;28;20055;-68
2023/03/20 09:03:49;;;;;;;24.25;9.00;;;;;;;;;;5082712;28;20547;-67
2023/03/20 09:06:18;;;;;;;26.25;9.13;;;;;;;;;;5082854;28;20048;-67
2023/03/20 09:08:45;;;;;;;20.45;8.02;;;;;;;;;;5087470;28;20048;-67
2023/03/20 09:11:12;;;;;;;23.98;9.23;;;;;;;;;;5090655;28;20044;-67
2023/03/20 09:13:40;;;;;;;27.30;8.98;;;;;;;;;;5069955;28;20052;-67
2023/03/20 09:16:07;;;;;;;21.83;9.02;;;;;;;;;;5091751;28;20047;-67
2023/03/20 09:18:35;;;;;;;24.63;8.80;;;;;;;;;;5091159;28;20056;-67
2023/03/20 09:21:02;;;;;;;22.02;8.18;;;;;;;;;;5092541;28;20047;-67
2023/03/20 09:23:31;;;;;;;27.60;8.50;;;;;;;;;;5085575;28;20048;-67
2023/03/20 09:25:59;;;;;;;24.38;8.70;;;;;;;;;;5088801;28;20069;-67
2023/03/20 09:28:27;;;;;;;22.15;8.38;;;;;;;;;;5088504;28;20044;-67
2023/03/20 09:30:55;;;;;;;22.15;7.88;;;;;;;;;;5073797;28;20044;-67
2023/03/20 09:33:23;;;;;;;26.35;8.32;;;;;;;;;;5086783;28;20048;-67
2023/03/20 09:35:50;;;;;;;29.80;8.10;;;;;;;;;;5088349;28;20423;-67
2023/03/20 09:38:18;;;;;;;24.65;8.48;;;;;;;;;;5088604;28;20499;-67
2023/03/20 09:40:51;;;;;;;19.92;7.97;;;;;;;;;;5065487;28;20056;-67
2023/03/20 09:43:22;;;;;;;26.85;8.75;;;;;;;;;;5090852;28;20060;-67
2023/03/20 09:45:54;;;;;;;28.33;9.13;;;;;;;;;;5089197;28;20055;-67
2023/03/20 09:48:25;;;;;;;22.67;7.63;;;;;;;;;;5090329;28;20503;-67
2023/03/20 09:50:55;;;;;;;25.10;9.13;;;;;;;;;;5086992;28;20055;-67
2023/03/20 09:53:26;;;;;;;28.27;8.07;;;;;;;;;;5081125;28;20044;-67
2023/03/20 09:55:55;;;;;;;20.05;6.85;;;;;;;;;;5086253;28;20063;-67
2023/03/20 09:58:24;;;;;;;24.70;7.22;;;;;;;;;;5086284;28;20064;-67
2023/03/20 10:00:51;;;;;;;26.42;7.50;;;;;;;;;;5067054;28;20044;-67
2023/03/20 10:03:20;;;;;;;35.53;8.32;;;;;;;;;;5089303;28;20131;-67
2023/03/20 10:05:51;;;;;;;22.00;7.28;;;;;;;;;;5086258;28;20399;-67
2023/03/20 10:08:21;;;;;;;27.10;8.00;;;;;;;;;;5089618;28;20052;-67
2023/03/20 10:10:50;;;;;;;26.58;7.30;;;;;;;;;;5086219;28;20131;-67
2023/03/20 10:13:31;;;;;;;24.35;7.00;;;;;;;;;;5086420;28;20498;-67
2023/03/20 10:16:01;;;;;;;22.38;6.30;;;;;;;;;;5085674;28;20133;-67
2023/03/20 10:18:30;;;;;;;24.90;6.63;;;;;;;;;;5085059;28;20048;-67
2023/03/20 10:21:00;;;;;;;22.02;5.43;;;;;;;;;;5078760;28;20056;-67
2023/03/20 10:23:30;;;;;;;27.15;8.43;;;;;;;;;;5086053;28;20055;-67
2023/03/20 10:26:01;;;;;;;28.05;7.03;;;;;;;;;;5087811;28;20079;-67
2023/03/20 10:28:32;;;;;;;19.63;5.45;;;;;;;;;;5082912;28;20079;-67
2023/03/20 10:31:05;;;;;;;23.48;7.45;;;;;;;;;;5086971;28;20043;-67
2023/03/20 10:33:38;;;;;;;23.52;5.75;;;;;;;;;;5087093;28;20052;-67
2023/03/20 10:36:12;;;;;;;29.48;6.03;;;;;;;;;;5085297;28;20048;-67
2023/03/20 10:38:43;;;;;;;26.77;6.22;;;;;;;;;;5084832;28;20145;-67
2023/03/20 10:41:12;;;;;;;24.75;6.20;;;;;;;;;;5083400;28;20044;-67
2023/03/20 10:43:42;;;;;;;25.40;6.25;;;;;;;;;;5082251;28;20052;-67
2023/03/20 10:46:12;;;;;;;24.27;5.88;;;;;;;;;;5086254;28;20075;-67
2023/03/20 10:48:41;;;;;;;25.42;6.25;;;;;;;;;;5085155;28;20044;-67
2023/03/20 10:51:13;;;;;;;24.05;5.35;;;;;;;;;;5067066;28;20560;-67
2023/03/20 10:53:45;;;;;;;24.80;5.15;;;;;;;;;;5088147;28;20073;-67
2023/03/20 10:56:15;;;;;;;24.77;4.97;;;;;;;;;;5085782;28;20683;-67
2023/03/20 10:58:46;;;;;;;19.92;4.47;;;;;;;;;;5084646;28;20521;-67
2023/03/20 11:01:13;;;;;;;22.75;4.80;;;;;;;;;;5068964;28;20094;-67
2023/03/20 11:03:40;;;;;;;17.60;4.43;;;;;;;;;;5086060;28;20109;-68
2023/03/20 11:06:12;;;;;;;24.20;4.82;;;;;;;;;;5080606;28;20577;-67
2023/03/20 11:08:41;;;;;;;19.98;4.40;;;;;;;;;;5085099;28;20071;-68
2023/03/20 11:11:08;;;;;;;27.67;5.00;;;;;;;;;;5070904;28;20052;-68
2023/03/20 11:13:37;;;;;;;20.77;4.25;;;;;;;;;;5069045;28;20140;-68
2023/03/20 11:16:17;;;;;;;17.85;4.10;;;;;;;;;;5084246;28;20511;-68
2023/03/20 11:18:44;;;;;;;25.00;5.07;;;;;;;;;;5087118;28;20368;-68
2023/03/20 11:21:16;;;;;;;24.65;6.28;;;;;;;;;;5088790;28;20521;-68
2023/03/20 11:23:43;;;;;;;20.77;6.20;;;;;;;;;;5084804;28;20040;-68
2023/03/20 11:26:15;;;;;;;26.90;6.70;;;;;;;;;;5090211;28;20402;-65
2023/03/20 11:28:47;;;;;;;27.75;7.00;;;;;;;;;;5084678;28;20570;-65
2023/03/20 11:31:20;;;;;;;24.48;7.50;;;;;;;;;;5084191;28;20067;-65
2023/03/20 11:33:51;;;;;;;28.30;8.38;;;;;;;;;;5078924;28;20060;-65
2023/03/20 11:36:23;;;;;;;25.38;8.88;;;;;;;;;;5084761;28;20446;-65
2023/03/20 11:38:51;;;;;;;26.83;9.90;;;;;;;;;;5057320;28;20051;-65
2023/03/20 11:41:20;;;;;;;23.75;9.77;;;;;;;;;;5082528;28;20051;-65
2023/03/20 11:43:47;;;;;;;22.20;8.57;;;;;;;;;;5082364;28;20082;-65
2023/03/20 11:46:14;;;;;;;21.80;9.05;;;;;;;;;;5087845;28;20139;-66
2023/03/20 11:48:44;;;;;;;19.30;9.10;;;;;;;;;;5086508;28;20125;-66
2023/03/20 11:51:13;;;;;;;15.45;9.57;;;;;;;;;;5086612;28;20547;-66
2023/03/20 11:53:41;;;;;;;20.40;11.20;;;;;;;;;;5085232;28;20058;-66
2023/03/20 11:56:10;;;;;;;19.75;11.15;;;;;;;;;;5074640;28;20086;-66
2023/03/20 11:58:39;;;;;;;16.38;10.27;;;;;;;;;;5084256;28;20044;-66
2023/03/20 12:01:09;;;;;;;17.60;10.48;;;;;;;;;;5084621;28;20063;-66
2023/03/20 12:03:40;;;;;;;18.50;11.02;;;;;;;;;;5088660;28;20044;-66
2023/03/20 12:06:13;;;;;;;13.57;9.20;;;;;;;;;;5079526;28;20824;-67
2023/03/20 12:08:42;;;;;;;11.23;8.93;;;;;;;;;;5082047;28;20506;-67
2023/03/20 12:11:20;;;;;;;16.05;9.98;;;;;;;;;;5084562;28;20047;-65
2023/03/20 12:13:50;;;;;;;15.10;8.95;;;;;;;;;;5066679;28;20834;-68
2023/03/20 12:16:18;;;;;;;14.88;9.02;;;;;;;;;;5083870;28;20158;-67
2023/03/20 12:18:47;;;;;;;13.43;7.65;;;;;;;;;;5065888;28;20052;-68
2023/03/20 12:21:20;;;;;;;13.20;10.05;;;;;;;;;;5084865;28;20059;-68
2023/03/20 12:23:50;;;;;;;14.85;8.45;;;;;;;;;;5084018;28;20044;-68
2023/03/20 12:26:21;;;;;;;16.70;9.35;;;;;;;;;;5085685;28;20048;-69
2023/03/20 12:28:52;;;;;;;16.17;8.50;;;;;;;;;;5082533;28;20478;-69
2023/03/20 12:31:24;;;;;;;13.43;6.97;;;;;;;;;;5082450;28;20063;-69
2023/03/20 12:33:53;;;;;;;13.57;9.18;;;;;;;;;;5082187;28;20040;-67
2023/03/20 12:36:26;;;;;;;9.65;8.48;;;;;;;;;;5077430;28;20052;-67
2023/03/20 12:38:53;;;;;;;14.68;10.10;;;;;;;;;;5068304;28;20143;-67
2023/03/20 12:41:24;;;;;;;14.65;9.70;;;;;;;;;;5087333;28;20052;-68
2023/03/20 12:44:09;;;;;;;16.92;10.75;;;;;;;;;;5078695;28;20048;-68
2023/03/20 12:46:41;;;;;;;15.85;10.55;;;;;;;;;;5080934;28;20483;-68
2023/03/20 12:49:13;;;;;;;12.27;10.27;;;;;;;;;;5086839;28;20051;-68
2023/03/20 12:51:49;;;;;;;12.75;10.00;;;;;;;;;;5084148;28;20127;-68
2023/03/20 12:54:21;;;;;;;15.13;9.55;;;;;;;;;;5076726;28;20052;-68
2023/03/20 12:56:56;;;;;;;19.95;12.38;;;;;;;;;;5085763;28;20048;-68
2023/03/20 12:59:27;;;;;;;16.63;12.60;;;;;;;;;;5086544;28;20043;-66
2023/03/20 13:01:57;;;;;;;14.35;10.68;;;;;;;;;;5083205;28;20093;-65
2023/03/20 13:04:41;;;;;;;14.48;10.57;;;;;;;;;;5080610;28;20041;-65
2023/03/20 13:07:15;;;;;;;19.63;13.50;;;;;;;;;;5078758;28;20462;-65
2023/03/20 13:10:00;;;;;;;17.27;13.15;;;;;;;;;;5086823;28;20094;-65
2023/03/20 13:12:33;;;;;;;18.13;11.65;;;;;;;;;;5082820;28;20518;-65
2023/03/20 13:15:04;;;;;;;19.73;13.30;;;;;;;;;;5086174;28;20040;-65
2023/03/20 13:17:34;;;;;;;20.50;13.70;;;;;;;;;;5080282;28;20052;-65
2023/03/20 13:20:10;;;;;;;19.70;13.57;;;;;;;;;;5083396;28;20507;-65
2023/03/20 13:22:47;;;;;;;19.88;13.95;;;;;;;;;;5082380;28;20040;-65
2023/03/20 13:25:21;;;;;;;20.02;13.75;;;;;;;;;;5060685;28;20056;-65
2023/03/20 13:27:50;;;;;;;17.42;12.45;;;;;;;;;;5087504;28;20054;-66
2023/03/20 13:30:20;;;;;;;15.40;10.98;;;;;;;;;;5082203;28;20604;-66
2023/03/20 13:32:54;;;;;;;15.32;11.90;;;;;;;;;;5080440;28;20091;-65
2023/03/20 13:35:34;;;;;;;15.40;11.85;;;;;;;;;;5080799;28;20547;-65
2023/03/20 13:38:08;;;;;;;16.27;11.82;;;;;;;;;;5077959;28;20180;-65
2023/03/20 13:40:35;;;;;;;;;;;;;;;;;;5061419;28;20044;-65
2023/03/20 13:43:09;;;;;;;16.63;12.20;;;;;;;;;;5085054;28;20298;-65
2023/03/20 13:45:38;;;;;;;12.98;10.32;;;;;;;;;;5080399;28;20044;-66
2023/03/20 13:48:10;;;;;;;17.63;11.00;;;;;;;;;;5083994;28;20052;-66
2023/03/20 13:50:44;;;;;;;15.63;11.75;;;;;;;;;;5083344;28;20048;-65
2023/03/20 13:53:18;;;;;;;15.40;11.88;;;;;;;;;;5084208;28;20051;-65
2023/03/20 13:55:51;;;;;;;15.60;11.25;;;;;;;;;;5080753;28;20047;-65
2023/03/20 13:58:28;;;;;;;13.05;9.32;;;;;;;;;;5087808;28;20479;-65
2023/03/20 14:00:57;;;;;;;14.38;10.02;;;;;;;;;;5088970;28;20044;-65
2023/03/20 14:03:27;;;;;;;12.85;8.85;;;;;;;;;;5088733;28;20052;-65
2023/03/20 14:05:55;;;;;;;14.63;9.13;;;;;;;;;;5089874;28;20043;-65
2023/03/20 14:08:31;;;;;;;13.95;9.43;;;;;;;;;;5091296;28;20498;-65
2023/03/20 14:11:06;;;;;;;13.15;9.77;;;;;;;;;;5089631;28;20050;-65
2023/03/20 14:13:35;;;;;;;10.05;8.45;;;;;;;;;;5086279;28;20050;-65
2023/03/20 14:16:03;;;;;;;12.27;9.40;;;;;;;;;;5089427;28;20102;-65
2023/03/20 14:18:31;;;;;;;15.70;9.60;;;;;;;;;;5086030;28;20475;-65
2023/03/20 14:20:59;;;;;;;12.20;8.90;;;;;;;;;;5090200;28;20493;-65
2023/03/20 14:23:33;;;;;;;10.98;8.25;;;;;;;;;;5087313;28;20411;-65
2023/03/20 14:26:01;;;;;;;9.15;7.68;;;;;;;;;;5089098;28;20134;-65
2023/03/20 14:28:30;;;;;;;9.18;7.15;;;;;;;;;;5089480;28;20074;-65
2023/03/20 14:31:14;;;;;;;8.70;7.13;;;;;;;;;;5078970;28;20433;-65
2023/03/20 14:33:45;;;;;;;11.07;7.50;;;;;;;;;;5089046;28;20056;-65
2023/03/20 14:36:20;;;;;;;7.55;6.55;;;;;;;;;;5090164;28;20058;-65
2023/03/20 14:38:50;;;;;;;9.93;7.38;;;;;;;;;;5088623;28;20101;-65